createdAt,value
2022-12-09T00:00:06.514Z,31.05
2022-12-09T00:02:52.878Z,36.28
2022-12-09T00:05:41.154Z,31.95
2022-12-09T00:08:27.308Z,33.70
2022-12-09T00:11:17.995Z,33.60
2022-12-09T00:14:04.821Z,35.50
2022-12-09T00:16:51.488Z,34.60
2022-12-09T00:19:38.226Z,34.55
2022-12-09T00:22:26.858Z,34.10
2022-12-09T00:25:12.908Z,36.90
2022-12-09T00:27:59.250Z,39.08
2022-12-09T00:30:46.512Z,36.88
2022-12-09T00:33:34.137Z,38.83
2022-12-09T00:36:21.785Z,38.67
2022-12-09T00:39:08.642Z,41.40
2022-12-09T00:41:55.421Z,38.78
2022-12-09T00:44:41.799Z,39.85
2022-12-09T00:47:27.868Z,39.45
2022-12-09T00:50:15.005Z,40.13
2022-12-09T00:53:01.172Z,40.38
2022-12-09T00:55:47.944Z,41.15
2022-12-09T00:58:34.385Z,43.47
2022-12-09T01:01:20.467Z,40.88
2022-12-09T01:04:08.989Z,41.28
2022-12-09T01:06:56.098Z,39.40
2022-12-09T01:09:43.524Z,40.22
2022-12-09T01:12:30.305Z,44.20
2022-12-09T01:15:16.917Z,41.03
2022-12-09T01:18:03.813Z,38.83
2022-12-09T01:20:56.741Z,41.05
2022-12-09T01:23:43.174Z,45.45
2022-12-09T01:26:29.444Z,45.42
2022-12-09T01:29:16.054Z,39.85
2022-12-09T01:32:02.797Z,41.60
2022-12-09T01:34:49.338Z,43.47
2022-12-09T01:37:36.777Z,40.70
2022-12-09T01:40:23.154Z,44.22
2022-12-09T01:43:19.075Z,42.05
2022-12-09T01:46:05.353Z,44.60
2022-12-09T01:48:52.872Z,40.22
2022-12-09T01:51:40.344Z,40.97
2022-12-09T01:54:26.835Z,44.20
2022-12-09T01:57:13.115Z,42.45
2022-12-09T01:59:59.643Z,42.45
2022-12-09T02:02:47.341Z,46.13
2022-12-09T02:05:40.667Z,46.22
2022-12-09T02:08:27.331Z,45.17
2022-12-09T02:11:20.397Z,47.40
2022-12-09T02:14:10.778Z,46.13
2022-12-09T02:17:07.395Z,47.08
2022-12-09T02:20:05.563Z,47.60
2022-12-09T02:23:19.459Z,51.05
2022-12-09T02:26:09.639Z,49.83
2022-12-09T02:29:02.686Z,43.65
2022-12-09T02:31:51.809Z,44.78
2022-12-09T02:34:48.751Z,49.53
2022-12-09T02:37:41.733Z,49.10
2022-12-09T03:04:06.320Z,49.85
2022-12-09T03:06:53.757Z,49.10
2022-12-09T03:09:43.045Z,52.92
2022-12-09T03:12:31.451Z,49.35
2022-12-09T03:15:19.377Z,52.70
2022-12-09T03:18:08.622Z,50.92
2022-12-09T03:20:55.551Z,52.70
2022-12-09T03:23:43.852Z,48.25
2022-12-09T03:26:32.012Z,54.15
2022-12-09T03:29:20.042Z,48.08
2022-12-09T03:32:06.783Z,52.95
2022-12-09T03:34:56.359Z,51.53
2022-12-09T03:37:42.841Z,52.33
2022-12-09T03:40:31.334Z,49.03
2022-12-09T03:43:22.806Z,51.53
2022-12-09T03:46:09.591Z,51.35
2022-12-09T03:48:56.522Z,47.13
2022-12-09T03:51:52.980Z,42.55
2022-12-09T03:54:47.217Z,46.15
2022-12-09T03:57:37.127Z,48.90
2022-12-09T04:00:24.450Z,44.63
2022-12-09T04:03:13.295Z,42.38
2022-12-09T04:05:59.451Z,47.17
2022-12-09T04:08:45.873Z,44.55
2022-12-09T04:11:32.758Z,47.03
2022-12-09T04:14:19.348Z,48.70
2022-12-09T04:17:06.291Z,46.50
2022-12-09T04:19:52.455Z,48.20
2022-12-09T04:22:39.240Z,48.47
2022-12-09T04:25:25.630Z,54.15
2022-12-09T04:28:12.026Z,55.72
2022-12-09T04:30:59.387Z,63.70
2022-12-09T04:33:45.827Z,54.55
2022-12-09T04:36:32.534Z,54.47
2022-12-09T04:39:19.776Z,51.90
2022-12-09T04:42:06.885Z,53.13
2022-12-09T04:44:53.818Z,56.75
2022-12-09T04:47:42.893Z,55.08
2022-12-09T04:50:29.562Z,53.90
2022-12-09T04:53:15.691Z,52.75
2022-12-09T04:56:10.063Z,57.63
2022-12-09T04:58:56.246Z,55.63
2022-12-09T05:01:43.661Z,51.65
2022-12-09T05:04:29.841Z,48.42
2022-12-09T05:07:16.455Z,50.05
2022-12-09T05:10:03.229Z,49.45
2022-12-09T05:12:49.734Z,48.85
2022-12-09T05:15:38.496Z,51.90
2022-12-09T05:18:25.774Z,48.33
2022-12-09T05:21:13.440Z,44.05
2022-12-09T05:24:00.790Z,45.10
2022-12-09T05:26:47.356Z,47.22
2022-12-09T05:29:33.656Z,45.40
2022-12-09T05:32:20.130Z,40.08
2022-12-09T05:35:07.470Z,45.65
2022-12-09T05:37:53.773Z,43.42
2022-12-09T05:40:40.331Z,38.85
2022-12-09T05:43:27.112Z,41.75
2022-12-09T05:46:14.585Z,40.13
2022-12-09T05:49:01.531Z,40.45
2022-12-09T05:51:48.490Z,36.38
2022-12-09T05:54:35.379Z,35.72
2022-12-09T05:57:22.830Z,37.03
2022-12-09T06:00:09.878Z,33.25
2022-12-09T06:02:59.503Z,36.40
2022-12-09T06:05:46.218Z,36.55
2022-12-09T06:08:33.301Z,37.05
2022-12-09T06:11:21.053Z,37.67
2022-12-09T06:14:11.372Z,41.15
2022-12-09T06:16:58.091Z,39.95
2022-12-09T06:19:44.799Z,37.08
2022-12-09T06:22:31.547Z,38.58
2022-12-09T06:25:18.127Z,43.13
2022-12-09T06:28:05.404Z,42.22
2022-12-09T06:30:52.475Z,42.35
2022-12-09T06:33:54.809Z,43.83
2022-12-09T06:36:42.283Z,35.35
2022-12-09T06:39:29.683Z,43.25
2022-12-09T06:42:17.205Z,44.10
2022-12-09T06:45:04.044Z,45.47
2022-12-09T06:47:50.258Z,42.85
2022-12-09T06:50:37.800Z,45.13
2022-12-09T06:53:24.188Z,40.17
2022-12-09T06:56:12.521Z,37.25
2022-12-09T06:59:00.540Z,40.83
2022-12-09T07:01:46.913Z,34.92
2022-12-09T07:04:34.298Z,40.30
2022-12-09T07:07:21.231Z,42.30
2022-12-09T07:10:08.796Z,44.88
2022-12-09T07:12:56.066Z,44.90
2022-12-09T07:15:42.730Z,38.88
2022-12-09T07:18:29.270Z,41.55
2022-12-09T07:21:17.468Z,46.08
2022-12-09T07:24:04.718Z,38.08
2022-12-09T07:26:51.473Z,42.85
2022-12-09T07:29:38.403Z,35.50
2022-12-09T07:32:25.026Z,34.85
2022-12-09T07:35:11.449Z,34.45
2022-12-09T07:37:58.091Z,31.25
2022-12-09T07:40:44.926Z,32.28
2022-12-09T07:43:35.375Z,30.88
2022-12-09T07:46:22.556Z,29.55
2022-12-09T07:49:09.408Z,27.77
2022-12-09T07:51:56.073Z,29.55
2022-12-09T07:54:42.848Z,32.60
2022-12-09T07:57:29.147Z,29.65
2022-12-09T08:00:16.564Z,27.00
2022-12-09T08:03:26.882Z,28.58
2022-12-09T08:06:14.262Z,27.77
2022-12-09T08:09:02.275Z,31.55
2022-12-09T08:11:49.541Z,29.83
2022-12-09T08:14:36.046Z,26.70
2022-12-09T08:17:22.964Z,26.55
2022-12-09T08:20:10.083Z,32.30
2022-12-09T08:22:58.115Z,29.42
2022-12-09T08:25:44.679Z,26.38
2022-12-09T08:28:31.741Z,26.27
2022-12-09T08:31:23.292Z,24.38
2022-12-09T08:34:09.994Z,22.48
2022-12-09T08:37:01.767Z,24.30
2022-12-09T08:39:48.544Z,23.80
2022-12-09T08:42:35.366Z,26.52
2022-12-09T08:45:21.873Z,23.17
2022-12-09T08:48:08.777Z,24.58
2022-12-09T08:50:55.606Z,23.23
2022-12-09T08:53:42.335Z,24.40
2022-12-09T08:56:29.947Z,24.65
2022-12-09T08:59:17.019Z,21.52
2022-12-09T09:02:04.102Z,21.85
2022-12-09T09:04:50.784Z,17.92
2022-12-09T09:07:38.149Z,19.73
2022-12-09T09:10:24.971Z,20.30
2022-12-09T09:13:15.788Z,17.88
2022-12-09T09:16:02.760Z,18.58
2022-12-09T09:18:50.671Z,18.95
2022-12-09T09:21:37.936Z,19.80
2022-12-09T09:24:26.184Z,17.83
2022-12-09T09:27:14.068Z,16.58
2022-12-09T09:30:05.350Z,18.58
2022-12-09T09:32:52.754Z,20.10
2022-12-09T09:35:39.633Z,15.15
2022-12-09T09:38:26.490Z,15.13
2022-12-09T09:41:28.665Z,13.77
2022-12-09T09:44:36.252Z,21.63
2022-12-09T09:47:25.954Z,17.10
2022-12-09T09:50:31.740Z,15.75
2022-12-09T09:53:23.461Z,18.70
2022-12-09T09:56:29.979Z,17.17
2022-12-09T09:59:32.555Z,17.52
2022-12-09T10:02:19.898Z,13.43
2022-12-09T10:05:06.784Z,17.75
2022-12-09T10:07:55.069Z,25.15
2022-12-09T10:10:51.635Z,26.40
2022-12-09T10:13:38.668Z,26.02
2022-12-09T10:16:29.079Z,19.38
2022-12-09T10:19:22.594Z,17.92
2022-12-09T10:22:35.495Z,17.92
2022-12-09T10:25:26.709Z,16.92
2022-12-09T10:28:18.827Z,14.98
2022-12-09T10:31:05.332Z,17.88
2022-12-09T10:33:52.362Z,14.15
2022-12-09T10:36:40.162Z,14.07
2022-12-09T10:39:26.819Z,14.85
2022-12-09T10:42:35.208Z,14.77
2022-12-09T10:45:23.904Z,14.25
2022-12-09T10:48:32.800Z,15.38
2022-12-09T10:51:22.820Z,13.02
2022-12-09T10:54:20.919Z,12.68
2022-12-09T10:57:28.389Z,12.95
2022-12-09T11:00:28.460Z,14.18
2022-12-09T11:03:37.268Z,13.10
2022-12-09T11:06:32.301Z,15.60
2022-12-09T11:09:49.012Z,16.35
2022-12-09T11:12:41.340Z,15.45
2022-12-09T11:15:35.398Z,15.93
2022-12-09T11:18:27.415Z,16.05
2022-12-09T11:21:49.529Z,13.95
2022-12-09T11:24:37.010Z,16.67
2022-12-09T11:27:29.729Z,13.63
2022-12-09T11:30:27.561Z,19.93
2022-12-09T11:33:15.381Z,15.95
2022-12-09T11:36:04.764Z,14.15
2022-12-09T11:38:53.250Z,15.13
2022-12-09T11:42:04.393Z,13.10
2022-12-09T11:44:59.994Z,14.48
2022-12-09T11:50:54.323Z,13.93
2022-12-09T11:53:41.410Z,19.02
2022-12-09T11:56:29.201Z,20.40
2022-12-09T11:59:20.927Z,19.98
2022-12-09T12:02:19.685Z,18.70
2022-12-09T12:05:21.755Z,15.02
2022-12-09T12:08:14.612Z,17.75
2022-12-09T12:11:04.241Z,15.07
2022-12-09T12:13:52.445Z,17.25
2022-12-09T12:16:57.990Z,15.30
2022-12-09T12:22:52.993Z,12.82
2022-12-09T12:25:53.296Z,14.98
2022-12-09T12:29:03.985Z,16.33
2022-12-09T12:32:10.952Z,17.02
2022-12-09T12:37:54.583Z,20.90
2022-12-09T12:41:02.093Z,20.60
2022-12-09T12:44:25.993Z,23.77
2022-12-09T12:47:13.179Z,25.92
2022-12-09T12:50:18.989Z,24.55
2022-12-09T12:53:24.774Z,25.88
2022-12-09T12:56:19.993Z,25.48
2022-12-09T12:59:25.171Z,31.63
2022-12-09T13:02:27.784Z,29.52
2022-12-09T13:05:24.288Z,32.30
2022-12-09T13:08:29.142Z,32.10
2022-12-09T13:11:19.994Z,34.72
2022-12-09T13:14:11.521Z,35.08
2022-12-09T13:16:57.633Z,33.03
2022-12-09T13:19:50.356Z,38.30
2022-12-09T13:22:44.671Z,31.67
2022-12-09T13:25:44.395Z,35.30
2022-12-09T13:28:30.685Z,35.00
2022-12-09T13:31:19.163Z,33.42
2022-12-09T13:34:14.402Z,34.53
2022-12-09T13:37:01.462Z,28.63
2022-12-09T13:39:51.254Z,29.13
2022-12-09T13:42:56.399Z,30.20
2022-12-09T13:45:45.569Z,32.20
2022-12-09T13:48:31.738Z,30.73
2022-12-09T13:51:18.566Z,27.83
2022-12-09T13:54:07.653Z,29.88
2022-12-09T13:57:06.509Z,26.52
2022-12-09T13:59:54.293Z,28.42
2022-12-09T14:03:00.979Z,28.10
2022-12-09T14:05:48.044Z,28.38
2022-12-09T14:08:37.322Z,28.50
2022-12-09T14:11:39.136Z,28.77
2022-12-09T14:14:25.943Z,27.10
2022-12-09T14:17:26.083Z,25.55
2022-12-09T14:23:34.153Z,24.13
2022-12-09T14:26:45.264Z,22.65
2022-12-09T14:29:51.847Z,20.65
2022-12-09T14:32:54.259Z,19.98
2022-12-09T14:36:04.146Z,22.58
2022-12-09T14:39:23.488Z,23.25
2022-12-09T14:42:18.947Z,21.95
2022-12-09T14:45:16.334Z,26.17
2022-12-09T14:48:02.941Z,26.38
2022-12-09T14:50:49.225Z,22.88
2022-12-09T14:53:36.546Z,23.92
2022-12-09T14:56:24.304Z,24.52
2022-12-09T14:59:15.047Z,23.42
2022-12-09T15:02:03.512Z,25.25
2022-12-09T15:04:51.078Z,22.10
2022-12-09T15:07:44.657Z,22.70
2022-12-09T15:10:32.285Z,21.13
2022-12-09T15:13:21.257Z,17.73
2022-12-09T15:16:12.409Z,18.05
2022-12-09T15:18:58.691Z,18.77
2022-12-09T15:21:46.621Z,19.02
2022-12-09T15:24:49.338Z,17.75
2022-12-09T15:30:23.890Z,18.73
2022-12-09T15:33:15.845Z,19.75
2022-12-09T15:36:14.370Z,24.48
2022-12-09T15:39:01.420Z,21.65
2022-12-09T15:42:07.828Z,19.80
2022-12-09T15:45:03.971Z,20.58
2022-12-09T15:47:50.986Z,21.10
2022-12-09T15:50:42.512Z,24.45
2022-12-09T15:53:32.453Z,23.30
2022-12-09T15:56:20.945Z,25.73
2022-12-09T15:59:13.763Z,24.83
2022-12-09T16:02:01.791Z,21.60
2022-12-09T16:04:49.971Z,23.10
2022-12-09T16:07:36.824Z,23.67
2022-12-09T16:10:27.120Z,28.85
2022-12-09T16:13:15.379Z,25.98
2022-12-09T16:16:03.198Z,27.25
2022-12-09T16:18:51.230Z,34.28
2022-12-09T16:21:38.639Z,33.88
2022-12-09T16:24:28.247Z,37.47
2022-12-09T16:27:26.544Z,33.38
2022-12-09T16:30:15.252Z,36.92
2022-12-09T16:33:02.740Z,37.70
2022-12-09T16:36:02.520Z,37.88
2022-12-09T16:39:07.513Z,38.40
2022-12-09T16:41:54.641Z,49.17
2022-12-09T16:44:41.072Z,44.15
2022-12-09T16:47:29.244Z,46.90
2022-12-09T16:50:15.541Z,39.15
2022-12-09T16:53:03.672Z,38.65
2022-12-09T16:56:01.058Z,29.63
2022-12-09T16:58:47.443Z,30.88
2022-12-09T17:01:36.848Z,32.97
2022-12-09T17:04:25.332Z,33.20
2022-12-09T17:07:12.077Z,28.30
2022-12-09T17:09:58.744Z,32.85
2022-12-09T17:12:45.455Z,38.35
2022-12-09T17:15:31.770Z,38.80
2022-12-09T17:18:18.408Z,39.63
2022-12-09T17:21:05.960Z,37.28
2022-12-09T17:23:52.850Z,40.22
2022-12-09T17:26:39.734Z,49.65
2022-12-09T17:29:26.467Z,42.55
2022-12-09T17:32:40.980Z,45.70
2022-12-09T17:35:28.693Z,63.92
2022-12-09T17:38:14.848Z,68.32
2022-12-09T17:41:17.406Z,62.42
2022-12-09T17:44:04.300Z,58.92
2022-12-09T17:46:51.314Z,56.35
2022-12-09T17:49:37.721Z,63.00
2022-12-09T17:52:23.825Z,68.65
2022-12-09T17:55:11.032Z,70.70
2022-12-09T17:58:01.250Z,59.70
2022-12-09T18:00:47.965Z,54.78
2022-12-09T18:03:54.765Z,60.20
2022-12-09T18:06:45.299Z,61.50
2022-12-09T18:09:31.736Z,65.97
2022-12-09T18:12:18.696Z,61.03
2022-12-09T18:15:08.620Z,62.35
2022-12-09T18:18:14.801Z,61.25
2022-12-09T18:21:01.700Z,60.85
2022-12-09T18:23:48.639Z,62.17
2022-12-09T18:26:41.287Z,61.47
2022-12-09T18:29:29.803Z,65.68
2022-12-09T18:32:23.388Z,66.57
2022-12-09T18:35:10.105Z,60.60
2022-12-09T18:38:11.025Z,61.67
2022-12-09T18:41:02.963Z,63.97
2022-12-09T18:43:51.488Z,71.53
2022-12-09T18:46:40.301Z,65.00
2022-12-09T18:49:28.589Z,65.65
2022-12-09T18:52:15.586Z,65.50
2022-12-09T18:55:01.901Z,67.47
2022-12-09T18:57:56.672Z,67.50
2022-12-09T19:00:43.487Z,74.38
2022-12-09T19:03:30.340Z,69.82
2022-12-09T19:06:21.391Z,55.60
2022-12-09T19:09:11.222Z,65.28
2022-12-09T19:12:07.282Z,56.78
2022-12-09T19:15:03.343Z,61.97
2022-12-09T19:17:52.028Z,59.45
2022-12-09T19:20:38.392Z,58.35
2022-12-09T19:23:28.665Z,60.13
2022-12-09T19:26:22.765Z,55.47
2022-12-09T19:29:10.086Z,55.42
2022-12-09T19:31:57.420Z,57.25
2022-12-09T19:34:49.370Z,62.38
2022-12-09T19:37:37.543Z,52.13
2022-12-09T19:40:24.199Z,58.17
2022-12-09T19:43:11.081Z,59.95
2022-12-09T19:45:57.251Z,55.55
2022-12-09T19:48:45.217Z,69.68
2022-12-09T19:51:32.347Z,61.45
2022-12-09T19:54:21.407Z,58.03
2022-12-09T19:57:10.750Z,56.10
2022-12-09T19:59:57.554Z,50.90
2022-12-09T20:02:45.379Z,57.33
2022-12-09T20:05:31.954Z,53.75
2022-12-09T20:08:18.757Z,51.50
2022-12-09T20:11:06.267Z,60.00
2022-12-09T20:13:53.809Z,52.55
2022-12-09T20:16:40.376Z,49.97
2022-12-09T20:19:26.970Z,52.53
2022-12-09T20:22:13.266Z,49.17
2022-12-09T20:24:59.570Z,46.30
2022-12-09T20:27:45.737Z,54.55
2022-12-09T20:30:31.914Z,44.20
2022-12-09T20:33:18.057Z,48.53
2022-12-09T20:36:08.265Z,47.35
2022-12-09T20:38:56.988Z,46.13
2022-12-09T20:41:44.574Z,47.03
2022-12-09T20:44:32.435Z,43.13
2022-12-09T20:47:18.871Z,45.35
2022-12-09T20:50:05.838Z,41.20
2022-12-09T20:52:52.666Z,42.67
2022-12-09T20:55:39.237Z,46.03
2022-12-09T20:58:25.705Z,42.25
2022-12-09T21:01:13.330Z,40.85
2022-12-09T21:04:00.618Z,39.67
2022-12-09T21:06:48.402Z,39.28
2022-12-09T21:09:34.810Z,36.63
2022-12-09T21:12:20.976Z,43.45
2022-12-09T21:15:07.379Z,44.58
2022-12-09T21:17:55.068Z,42.33
2022-12-09T21:20:44.392Z,43.40
2022-12-09T21:23:34.187Z,39.97
2022-12-09T21:26:21.774Z,40.35
2022-12-09T21:29:09.458Z,44.47
2022-12-09T21:31:55.668Z,44.38
2022-12-09T21:34:41.818Z,46.72
2022-12-09T21:37:29.630Z,53.70
2022-12-09T21:40:16.508Z,58.60
2022-12-09T21:43:02.901Z,56.40
2022-12-09T21:45:49.217Z,51.63
2022-12-09T21:48:36.007Z,55.20
2022-12-09T21:51:22.560Z,56.25
2022-12-09T21:54:08.802Z,59.58
2022-12-09T21:56:55.728Z,60.55
2022-12-09T21:59:41.848Z,61.45
2022-12-09T22:02:28.112Z,63.17
2022-12-09T22:05:14.344Z,64.07
2022-12-09T22:08:00.736Z,60.70
2022-12-09T22:10:47.078Z,63.30
2022-12-09T22:13:39.031Z,58.35
2022-12-09T22:16:29.015Z,57.58
2022-12-09T22:19:18.387Z,61.58
2022-12-09T22:22:12.109Z,45.58
2022-12-09T22:24:58.552Z,56.92
2022-12-09T22:27:45.513Z,60.38
2022-12-09T22:30:31.784Z,51.53
2022-12-09T22:33:18.019Z,50.15
2022-12-09T22:36:08.228Z,50.17
2022-12-09T22:38:55.255Z,58.20
2022-12-09T22:41:41.651Z,57.88
2022-12-09T22:44:28.767Z,57.45
2022-12-09T22:47:15.140Z,55.85
2022-12-09T22:50:01.250Z,44.20
2022-12-09T22:52:47.643Z,42.22
2022-12-09T22:55:33.849Z,40.00
2022-12-09T22:58:19.986Z,39.08
2022-12-09T23:01:14.235Z,36.40
2022-12-09T23:04:01.177Z,45.33
2022-12-09T23:06:47.575Z,41.97
2022-12-09T23:09:33.871Z,44.78
2022-12-09T23:12:20.118Z,45.50
2022-12-09T23:15:06.325Z,40.22
2022-12-09T23:17:53.375Z,40.50
2022-12-09T23:20:40.396Z,49.67
2022-12-09T23:23:26.644Z,48.95
2022-12-09T23:26:14.153Z,47.20
2022-12-09T23:29:01.680Z,46.92
2022-12-09T23:31:47.774Z,47.70
2022-12-09T23:34:33.830Z,40.42
2022-12-09T23:37:20.013Z,44.15
2022-12-09T23:40:06.767Z,36.88
2022-12-09T23:42:53.865Z,37.50
2022-12-09T23:45:40.268Z,42.67
2022-12-09T23:48:26.697Z,48.08
2022-12-09T23:51:21.120Z,43.35
2022-12-09T23:54:09.156Z,46.50
2022-12-09T23:56:55.368Z,44.58
2022-12-09T23:59:41.502Z,45.28
